createdAt,value
2019-04-21T00:01:08.788Z,16.73
2019-04-21T00:03:43.082Z,13.90
2019-04-21T00:06:30.952Z,14.43
2019-04-21T00:09:02.712Z,16.60
2019-04-21T00:11:29.864Z,15.80
2019-04-21T00:13:52.406Z,15.17
2019-04-21T00:16:15.304Z,16.03
2019-04-21T00:18:58.199Z,14.20
2019-04-21T00:21:29.226Z,14.70
2019-04-21T00:24:29.212Z,16.07
2019-04-21T00:27:01.944Z,16.93
2019-04-21T00:29:38.417Z,16.70
2019-04-21T00:32:03.077Z,16.63
2019-04-21T00:34:19.575Z,15.27
2019-04-21T00:36:59.639Z,15.13
2019-04-21T00:39:48.975Z,19.63
2019-04-21T00:42:11.233Z,19.40
2019-04-21T00:44:33.233Z,16.07
2019-04-21T00:47:08.510Z,15.17
2019-04-21T00:49:42.765Z,16.70
2019-04-21T00:52:30.269Z,16.10
2019-04-21T00:55:01.104Z,17.87
2019-04-21T00:57:27.796Z,17.20
2019-04-21T01:00:00.847Z,17.20
2019-04-21T01:02:34.233Z,21.53
2019-04-21T01:05:08.732Z,16.97
2019-04-21T01:07:31.474Z,17.73
2019-04-21T01:09:54.368Z,19.93
2019-04-21T01:12:33.086Z,20.43
2019-04-21T01:15:09.235Z,21.80
2019-04-21T01:17:35.697Z,19.47
2019-04-21T01:20:01.183Z,21.57
2019-04-21T01:22:16.317Z,21.17
2019-04-21T01:24:48.744Z,19.27
2019-04-21T01:27:33.572Z,20.33
2019-04-21T01:30:14.318Z,18.63
2019-04-21T01:32:46.843Z,18.60
2019-04-21T01:35:10.198Z,22.10
2019-04-21T01:37:43.781Z,20.30
2019-04-21T01:40:16.952Z,19.43
2019-04-21T01:43:07.998Z,21.80
2019-04-21T01:45:37.634Z,19.93
2019-04-21T01:48:05.719Z,21.50
2019-04-21T01:50:41.177Z,22.97
2019-04-21T01:53:30.889Z,20.53
2019-04-21T01:56:03.359Z,18.87
2019-04-21T01:58:25.436Z,20.10
2019-04-21T02:01:03.458Z,23.60
2019-04-21T02:08:36.410Z,21.37
2019-04-21T02:11:17.652Z,20.70
2019-04-21T02:13:53.522Z,25.10
2019-04-21T02:16:17.040Z,23.50
2019-04-21T02:18:45.361Z,22.57
2019-04-21T02:21:14.809Z,24.20
2019-04-21T02:23:54.336Z,20.63
2019-04-21T02:26:23.026Z,27.27
2019-04-21T02:28:56.032Z,21.43
2019-04-21T02:34:06.980Z,20.20
2019-04-21T02:39:19.160Z,21.77
2019-04-21T02:41:43.792Z,26.20
2019-04-21T02:44:08.256Z,25.93
2019-04-21T02:46:42.511Z,23.07
2019-04-21T02:49:13.262Z,27.37
2019-04-21T02:57:01.690Z,25.73
2019-04-21T02:59:28.989Z,25.17
2019-04-21T03:04:34.881Z,26.20
2019-04-21T03:07:14.963Z,23.63
2019-04-21T03:09:35.891Z,21.10
2019-04-21T03:12:22.278Z,26.93
2019-04-21T03:14:58.190Z,25.80
2019-04-21T03:17:23.903Z,27.37
2019-04-21T03:19:53.691Z,21.80
2019-04-21T03:22:22.601Z,22.63
2019-04-21T03:25:04.263Z,23.70
2019-04-21T03:27:30.810Z,27.10
2019-04-21T03:29:59.448Z,25.23
2019-04-21T03:42:34.197Z,25.17
2019-04-21T03:47:30.774Z,25.50
2019-04-21T03:52:42.419Z,23.00
2019-04-21T03:58:19.590Z,27.37
2019-04-21T04:00:58.542Z,24.80
2019-04-21T04:03:46.986Z,26.20
2019-04-21T04:06:13.388Z,25.57
2019-04-21T04:13:53.401Z,26.17
2019-04-21T04:16:06.158Z,23.37
2019-04-21T04:18:46.145Z,30.90
2019-04-21T04:21:12.279Z,32.50
2019-04-21T04:23:45.338Z,31.10
2019-04-21T04:29:04.214Z,31.83
2019-04-21T04:31:26.002Z,28.33
2019-04-21T04:34:04.486Z,29.87
2019-04-21T04:36:26.381Z,29.73
2019-04-21T04:39:16.249Z,28.87
2019-04-21T04:44:39.394Z,29.77
2019-04-21T04:49:40.134Z,27.57
2019-04-21T04:52:15.593Z,26.13
2019-04-21T04:54:40.087Z,29.47
2019-04-21T04:57:07.482Z,37.10
2019-04-21T05:02:17.009Z,36.10
2019-04-21T05:09:31.578Z,34.00
2019-04-21T05:12:01.973Z,30.33
2019-04-21T05:14:39.531Z,32.60
2019-04-21T05:17:17.133Z,30.00
2019-04-21T05:22:19.926Z,35.60
2019-04-21T05:24:36.090Z,36.53
2019-04-21T05:27:02.764Z,29.50
2019-04-21T05:29:37.782Z,31.47
2019-04-21T05:32:26.433Z,35.13
2019-04-21T05:34:55.975Z,36.43
2019-04-21T05:37:36.706Z,32.67
2019-04-21T05:40:05.813Z,30.17
2019-04-21T05:42:39.637Z,37.03
2019-04-21T05:45:21.138Z,33.87
2019-04-21T05:47:56.312Z,39.67
2019-04-21T05:50:16.621Z,33.97
2019-04-21T05:52:46.192Z,35.47
2019-04-21T05:55:33.446Z,37.77
2019-04-21T05:57:58.311Z,36.97
2019-04-21T06:03:04.939Z,39.33
2019-04-21T06:08:09.822Z,39.80
2019-04-21T06:10:43.297Z,43.73
2019-04-21T06:13:12.903Z,41.37
2019-04-21T06:15:48.471Z,44.33
2019-04-21T06:18:21.789Z,35.87
2019-04-21T06:20:52.934Z,39.87
2019-04-21T06:23:20.336Z,40.30
2019-04-21T06:26:09.443Z,43.93
2019-04-21T06:28:20.916Z,37.73
2019-04-21T06:31:01.552Z,37.67
2019-04-21T06:33:30.659Z,38.83
2019-04-21T06:36:26.467Z,34.63
2019-04-21T06:38:59.621Z,38.90
2019-04-21T06:41:31.492Z,38.87
2019-04-21T06:44:07.615Z,38.87
2019-04-21T06:46:40.765Z,41.90
2019-04-21T06:51:33.763Z,39.50
2019-04-21T06:54:04.088Z,35.07
2019-04-21T06:59:06.430Z,35.03
2019-04-21T07:01:36.351Z,38.37
2019-04-21T07:04:13.370Z,39.57
2019-04-21T07:06:42.644Z,36.90
2019-04-21T07:09:16.005Z,35.43
2019-04-21T07:11:39.362Z,36.73
2019-04-21T07:14:25.851Z,36.17
2019-04-21T07:16:44.915Z,40.37
2019-04-21T07:19:25.714Z,34.17
2019-04-21T07:21:48.017Z,42.10
2019-04-21T07:24:21.742Z,39.20
2019-04-21T07:26:51.358Z,34.33
2019-04-21T07:29:21.984Z,37.27
2019-04-21T07:31:55.558Z,36.13
2019-04-21T07:39:17.618Z,33.07
2019-04-21T07:41:49.673Z,31.20
2019-04-21T07:44:17.722Z,39.33
2019-04-21T07:46:44.658Z,33.43
2019-04-21T07:49:40.023Z,36.70
2019-04-21T07:52:28.287Z,39.27
2019-04-21T07:55:16.663Z,35.23
2019-04-21T07:57:35.411Z,39.10
2019-04-21T08:00:16.061Z,35.73
2019-04-21T08:02:38.550Z,35.80
2019-04-21T08:05:21.361Z,34.67
2019-04-21T08:07:47.817Z,36.77
2019-04-21T08:10:04.807Z,35.43
2019-04-21T08:12:40.829Z,31.13
2019-04-21T08:15:17.663Z,33.80
2019-04-21T08:17:45.710Z,32.57
2019-04-21T08:20:09.347Z,30.43
2019-04-21T08:22:46.574Z,29.43
2019-04-21T08:25:14.933Z,33.00
2019-04-21T08:27:47.887Z,30.80
2019-04-21T08:30:22.839Z,32.97
2019-04-21T08:37:48.418Z,28.43
2019-04-21T08:40:26.655Z,31.00
2019-04-21T08:42:54.045Z,29.13
2019-04-21T08:47:52.340Z,25.43
2019-04-21T08:50:26.215Z,26.27
2019-04-21T08:55:31.829Z,31.77
2019-04-21T08:58:15.977Z,24.40
2019-04-21T09:00:45.175Z,27.30
2019-04-21T09:03:28.504Z,27.67
2019-04-21T09:06:05.886Z,26.00
2019-04-21T09:08:37.648Z,25.23
2019-04-21T09:10:59.018Z,26.47
2019-04-21T09:13:29.692Z,22.77
2019-04-21T09:15:59.418Z,22.80
2019-04-21T09:18:26.845Z,19.97
2019-04-21T09:21:06.192Z,23.37
2019-04-21T09:23:36.168Z,26.80
2019-04-21T09:26:05.998Z,21.83
2019-04-21T09:28:37.069Z,26.35
2019-04-21T09:30:56.896Z,24.55
2019-04-21T09:33:28.046Z,22.25
2019-04-21T09:35:59.297Z,23.62
2019-04-21T09:38:33.846Z,23.15
2019-04-21T09:40:56.542Z,24.90
2019-04-21T09:43:34.116Z,23.22
2019-04-21T09:45:58.874Z,21.15
2019-04-21T09:48:37.405Z,20.75
2019-04-21T09:50:59.679Z,23.25
2019-04-21T09:53:34.451Z,23.15
2019-04-21T09:56:04.912Z,21.27
2019-04-21T09:58:39.890Z,22.05
2019-04-21T10:01:12.234Z,20.20
2019-04-21T10:03:40.632Z,21.77
2019-04-21T10:06:04.857Z,18.05
2019-04-21T10:08:34.407Z,18.67
2019-04-21T10:11:05.306Z,19.35
2019-04-21T10:13:36.083Z,19.23
2019-04-21T10:16:10.866Z,23.98
2019-04-21T10:18:40.390Z,18.20
2019-04-21T10:21:18.008Z,16.25
2019-04-21T10:23:47.967Z,14.80
2019-04-21T10:26:18.681Z,14.95
2019-04-21T10:28:49.048Z,16.95
2019-04-21T10:31:18.569Z,14.43
2019-04-21T10:33:48.509Z,13.45
2019-04-21T10:36:19.099Z,14.28
2019-04-21T10:38:52.226Z,14.23
2019-04-21T10:41:21.373Z,14.83
2019-04-21T10:43:51.384Z,14.85
2019-04-21T10:46:20.899Z,13.13
2019-04-21T10:48:50.635Z,15.32
2019-04-21T10:51:21.210Z,13.62
2019-04-21T10:53:54.249Z,14.20
2019-04-21T10:56:30.621Z,14.53
2019-04-21T10:58:54.629Z,12.93
2019-04-21T11:01:25.462Z,17.50
2019-04-21T11:04:00.616Z,24.23
2019-04-21T11:06:30.815Z,16.93
2019-04-21T11:09:03.010Z,16.10
2019-04-21T11:11:32.099Z,15.40
2019-04-21T11:14:02.459Z,15.48
2019-04-21T11:16:33.123Z,17.90
2019-04-21T11:19:02.539Z,13.93
2019-04-21T11:21:31.929Z,13.13
2019-04-21T11:24:01.891Z,16.55
2019-04-21T11:26:31.990Z,14.43
2019-04-21T11:29:01.351Z,15.13
2019-04-21T11:31:31.256Z,17.40
2019-04-21T11:34:01.042Z,17.27
2019-04-21T11:36:31.322Z,18.00
2019-04-21T11:39:12.375Z,17.10
2019-04-21T11:41:34.118Z,11.83
2019-04-21T11:44:05.034Z,12.75
2019-04-21T11:46:34.558Z,12.05
2019-04-21T11:49:04.193Z,9.65
2019-04-21T11:51:33.627Z,11.38
2019-04-21T11:54:03.023Z,12.65
2019-04-21T11:56:32.794Z,12.40
2019-04-21T11:59:03.757Z,12.05
2019-04-21T12:01:33.874Z,11.15
2019-04-21T12:04:03.483Z,13.83
2019-04-21T12:06:40.937Z,12.50
2019-04-21T12:09:06.982Z,11.97
2019-04-21T12:11:37.093Z,18.15
2019-04-21T12:14:07.996Z,14.25
2019-04-21T12:16:37.393Z,11.48
2019-04-21T12:19:07.166Z,11.43
2019-04-21T12:21:50.563Z,14.55
2019-04-21T12:24:08.949Z,11.85
2019-04-21T12:26:38.528Z,10.08
2019-04-21T12:29:08.121Z,13.20
2019-04-21T12:31:45.481Z,9.55
2019-04-21T12:34:16.069Z,12.98
2019-04-21T12:36:46.525Z,8.53
2019-04-21T12:39:16.877Z,10.85
2019-04-21T12:41:46.704Z,13.88
2019-04-21T12:44:16.159Z,12.25
2019-04-21T12:46:45.641Z,11.80
2019-04-21T12:49:15.918Z,13.53
2019-04-21T12:51:46.109Z,10.13
2019-04-21T12:54:15.584Z,11.97
2019-04-21T12:56:45.578Z,11.63
2019-04-21T12:59:15.137Z,11.60
2019-04-21T13:01:45.289Z,11.55
2019-04-21T13:04:15.609Z,12.30
2019-04-21T13:06:45.730Z,12.58
2019-04-21T13:09:18.730Z,10.98
2019-04-21T13:11:46.897Z,10.85
2019-04-21T13:14:17.755Z,10.55
2019-04-21T13:16:47.827Z,10.43
2019-04-21T13:19:17.638Z,10.05
2019-04-21T13:21:47.912Z,10.65
2019-04-21T13:24:17.833Z,11.80
2019-04-21T13:26:53.624Z,11.55
2019-04-21T13:29:18.476Z,11.73
2019-04-21T13:31:48.156Z,11.70
2019-04-21T13:34:18.052Z,13.80
2019-04-21T13:36:49.717Z,11.18
2019-04-21T13:40:01.581Z,12.00
2019-04-21T13:42:06.458Z,11.53
2019-04-21T13:44:28.896Z,12.93
2019-04-21T13:46:58.835Z,13.85
2019-04-21T13:49:29.559Z,12.15
2019-04-21T13:52:00.463Z,14.23
2019-04-21T13:54:31.496Z,12.40
2019-04-21T13:57:02.682Z,18.05
2019-04-21T13:59:32.209Z,11.10
2019-04-21T14:02:02.690Z,20.37
2019-04-21T14:04:33.579Z,13.03
2019-04-21T14:07:03.421Z,11.85
2019-04-21T14:09:40.265Z,10.68
2019-04-21T14:12:05.331Z,14.60
2019-04-21T14:14:34.928Z,10.18
2019-04-21T14:17:07.088Z,11.48
2019-04-21T14:19:37.410Z,9.78
2019-04-21T14:22:08.615Z,9.58
2019-04-21T14:24:38.735Z,11.38
2019-04-21T14:27:08.181Z,10.03
2019-04-21T14:29:37.765Z,10.30
2019-04-21T14:32:08.384Z,11.20
2019-04-21T14:34:37.805Z,10.55
2019-04-21T14:37:08.683Z,15.93
2019-04-21T14:39:50.407Z,9.98
2019-04-21T14:42:09.388Z,12.63
2019-04-21T14:44:38.862Z,11.00
2019-04-21T14:47:11.147Z,9.50
2019-04-21T14:49:59.465Z,8.80
2019-04-21T14:52:30.863Z,9.85
2019-04-21T14:55:18.550Z,11.88
2019-04-21T14:57:49.340Z,11.08
2019-04-21T15:00:20.918Z,11.15
2019-04-21T15:02:51.762Z,9.93
2019-04-21T15:05:21.734Z,9.80
2019-04-21T15:07:51.195Z,9.78
2019-04-21T15:10:25.539Z,11.60
2019-04-21T15:12:51.941Z,9.70
2019-04-21T15:15:21.277Z,11.33
2019-04-21T15:17:51.616Z,9.43
2019-04-21T15:20:22.044Z,7.87
2019-04-21T15:22:52.543Z,10.05
2019-04-21T15:25:22.036Z,11.83
2019-04-21T15:27:54.988Z,11.70
2019-04-21T15:30:24.790Z,13.10
2019-04-21T15:32:54.748Z,14.05
2019-04-21T15:35:24.933Z,10.48
2019-04-21T15:37:55.826Z,11.40
2019-04-21T15:40:37.475Z,10.08
2019-04-21T15:42:56.815Z,14.33
2019-04-21T15:45:26.510Z,10.25
2019-04-21T15:47:56.040Z,12.13
2019-04-21T15:50:26.510Z,12.07
2019-04-21T15:52:57.983Z,8.53
2019-04-21T15:55:44.531Z,11.73
2019-04-21T15:58:22.781Z,7.80
2019-04-21T16:01:10.400Z,8.55
2019-04-21T16:03:40.679Z,10.20
2019-04-21T16:06:10.022Z,9.58
2019-04-21T16:08:39.598Z,12.65
2019-04-21T16:11:11.383Z,8.65
2019-04-21T16:13:41.645Z,8.00
2019-04-21T16:16:12.453Z,7.65
2019-04-21T16:18:42.582Z,8.00
2019-04-21T16:21:13.713Z,7.53
2019-04-21T16:23:44.477Z,9.63
2019-04-21T16:26:14.971Z,9.78
2019-04-21T16:28:44.950Z,10.43
2019-04-21T16:31:14.549Z,8.70
2019-04-21T16:33:45.217Z,9.03
2019-04-21T16:36:16.743Z,7.45
2019-04-21T16:38:47.255Z,7.55
2019-04-21T16:41:18.165Z,10.10
2019-04-21T16:43:48.974Z,16.25
2019-04-21T16:46:19.678Z,13.28
2019-04-21T16:48:49.725Z,10.93
2019-04-21T16:51:20.220Z,7.17
2019-04-21T16:53:54.030Z,10.00
2019-04-21T16:56:31.132Z,6.53
2019-04-21T16:59:02.956Z,7.55
2019-04-21T17:01:34.263Z,7.15
2019-04-21T17:04:04.591Z,6.08
2019-04-21T17:06:35.297Z,7.15
2019-04-21T17:09:06.711Z,7.92
2019-04-21T17:11:41.571Z,8.20
2019-04-21T17:14:28.587Z,6.65
2019-04-21T17:17:03.722Z,8.90
2019-04-21T17:19:20.196Z,5.50
2019-04-21T17:21:43.699Z,6.05
2019-04-21T17:24:14.459Z,7.45
2019-04-21T17:26:44.738Z,5.40
2019-04-21T17:29:16.705Z,6.72
2019-04-21T17:31:47.612Z,7.03
2019-04-21T17:34:21.804Z,5.60
2019-04-21T17:36:48.747Z,13.75
2019-04-21T17:39:18.674Z,16.95
2019-04-21T17:41:59.132Z,19.35
2019-04-21T17:44:19.400Z,8.08
2019-04-21T17:46:57.275Z,5.70
2019-04-21T17:49:21.202Z,5.20
2019-04-21T17:51:58.496Z,7.85
2019-04-21T17:54:33.207Z,7.45
2019-04-21T17:57:16.233Z,6.05
2019-04-21T17:59:56.875Z,5.40
2019-04-21T18:02:21.285Z,5.05
2019-04-21T18:04:49.650Z,5.87
2019-04-21T18:07:27.439Z,9.25
2019-04-21T18:10:04.497Z,5.92
2019-04-21T18:12:33.411Z,8.08
2019-04-21T18:14:56.502Z,5.95
2019-04-21T18:17:18.681Z,5.10
2019-04-21T18:19:51.287Z,4.08
2019-04-21T18:22:31.326Z,6.80
2019-04-21T18:25:04.000Z,6.00
2019-04-21T18:27:29.742Z,6.08
2019-04-21T18:30:04.374Z,4.85
2019-04-21T18:32:38.481Z,5.53
2019-04-21T18:35:20.862Z,5.08
2019-04-21T18:38:04.518Z,7.22
2019-04-21T18:40:31.108Z,4.33
2019-04-21T18:43:27.661Z,9.65
2019-04-21T18:45:55.409Z,7.80
2019-04-21T18:48:14.999Z,4.17
2019-04-21T18:50:46.276Z,4.22
2019-04-21T18:53:24.133Z,6.65
2019-04-21T18:55:49.121Z,6.72
2019-04-21T18:58:15.723Z,8.35
2019-04-21T19:00:45.798Z,6.08
2019-04-21T19:03:25.269Z,10.10
2019-04-21T19:05:53.185Z,7.30
2019-04-21T19:08:31.329Z,4.17
2019-04-21T19:11:08.808Z,5.50
2019-04-21T19:14:10.463Z,6.78
2019-04-21T19:18:53.051Z,6.08
2019-04-21T19:21:12.870Z,7.55
2019-04-21T19:23:52.082Z,6.75
2019-04-21T19:28:52.183Z,7.95
2019-04-21T19:31:26.218Z,7.78
2019-04-21T19:33:42.460Z,9.28
2019-04-21T19:36:01.620Z,5.97
2019-04-21T19:38:45.836Z,6.10
2019-04-21T19:41:24.703Z,5.30
2019-04-21T19:43:55.046Z,3.80
2019-04-21T19:46:23.656Z,6.45
2019-04-21T19:49:01.209Z,6.83
2019-04-21T19:51:24.502Z,4.95
2019-04-21T19:53:50.666Z,6.90
2019-04-21T19:56:10.067Z,6.20
2019-04-21T19:58:43.567Z,6.72
2019-04-21T20:01:11.790Z,5.80
2019-04-21T20:03:43.148Z,5.65
2019-04-21T20:06:28.678Z,4.75
2019-04-21T20:09:00.723Z,4.45
2019-04-21T20:11:34.688Z,7.30
2019-04-21T20:14:35.621Z,4.12
2019-04-21T20:16:37.562Z,6.62
2019-04-21T20:18:55.476Z,6.03
2019-04-21T20:21:20.671Z,4.58
2019-04-21T20:23:51.614Z,6.95
2019-04-21T20:26:30.475Z,7.20
2019-04-21T20:29:07.276Z,4.70
2019-04-21T20:31:43.005Z,5.37
2019-04-21T20:34:16.065Z,5.95
2019-04-21T20:36:51.839Z,7.65
2019-04-21T20:39:05.640Z,8.95
2019-04-21T20:41:41.004Z,7.78
2019-04-21T20:44:21.118Z,8.45
2019-04-21T20:46:45.904Z,6.30
2019-04-21T20:49:15.956Z,7.42
2019-04-21T20:51:54.326Z,7.25
2019-04-21T20:54:24.633Z,13.15
2019-04-21T20:56:49.771Z,8.75
2019-04-21T20:59:19.410Z,11.93
2019-04-21T21:01:57.934Z,15.60
2019-04-21T21:04:17.799Z,14.57
2019-04-21T21:07:01.959Z,13.77
2019-04-21T21:09:25.640Z,11.93
2019-04-21T21:12:11.372Z,13.27
2019-04-21T21:14:30.649Z,10.73
2019-04-21T21:17:04.777Z,11.47
2019-04-21T21:19:37.735Z,12.00
2019-04-21T21:21:56.458Z,14.23
2019-04-21T21:24:41.604Z,11.00
2019-04-21T21:27:05.885Z,8.67
2019-04-21T21:29:33.464Z,10.67
2019-04-21T21:32:19.557Z,9.57
2019-04-21T21:34:41.000Z,12.00
2019-04-21T21:37:21.711Z,10.23
2019-04-21T21:39:46.283Z,12.90
2019-04-21T21:41:58.580Z,8.20
2019-04-21T21:44:28.278Z,7.13
2019-04-21T21:47:06.560Z,9.17
2019-04-21T21:49:42.688Z,10.43
2019-04-21T21:52:11.504Z,13.30
2019-04-21T21:54:31.749Z,9.87
2019-04-21T21:57:02.577Z,8.93
2019-04-21T21:59:36.476Z,8.10
2019-04-21T22:02:03.932Z,10.80
2019-04-21T22:04:37.484Z,10.07
2019-04-21T22:07:09.991Z,10.27
2019-04-21T22:09:36.779Z,9.23
2019-04-21T22:12:08.749Z,8.73
2019-04-21T22:14:43.554Z,9.43
2019-04-21T22:17:24.680Z,12.13
2019-04-21T22:20:05.384Z,10.07
2019-04-21T22:22:22.887Z,6.33
2019-04-21T22:24:53.147Z,8.07
2019-04-21T22:27:13.008Z,8.60
2019-04-21T22:29:48.217Z,9.83
2019-04-21T22:32:17.420Z,9.93
2019-04-21T22:34:51.404Z,9.17
2019-04-21T22:37:30.753Z,9.63
2019-04-21T22:40:02.231Z,8.60
2019-04-21T22:42:22.419Z,8.07
2019-04-21T22:44:50.297Z,8.70
2019-04-21T22:47:24.970Z,8.40
2019-04-21T22:49:52.642Z,8.77
2019-04-21T22:52:25.850Z,7.80
2019-04-21T22:54:54.166Z,7.17
2019-04-21T22:57:27.311Z,10.60
2019-04-21T23:00:01.040Z,7.53
2019-04-21T23:02:30.541Z,8.90
2019-04-21T23:04:58.648Z,8.57
2019-04-21T23:07:32.944Z,8.73
2019-04-21T23:10:01.049Z,11.80
2019-04-21T23:12:34.621Z,10.43
2019-04-21T23:15:06.546Z,9.43
2019-04-21T23:17:53.262Z,8.87
2019-04-21T23:20:29.722Z,11.87
2019-04-21T23:23:02.082Z,11.27
2019-04-21T23:25:26.608Z,9.07
2019-04-21T23:27:57.393Z,11.70
2019-04-21T23:30:33.966Z,13.23
2019-04-21T23:32:51.381Z,10.77
2019-04-21T23:35:21.821Z,9.23
2019-04-21T23:37:54.287Z,9.13
2019-04-21T23:40:19.891Z,8.20
2019-04-21T23:42:49.166Z,8.67
2019-04-21T23:45:27.432Z,14.80
2019-04-21T23:48:01.357Z,10.30
2019-04-21T23:50:33.015Z,11.33
2019-04-21T23:52:53.373Z,10.43
2019-04-21T23:55:23.212Z,10.53
2019-04-21T23:58:04.983Z,10.43
